San Angelo's Hourly Summary for Tuesday, January 18, 2022
Hour Temp
(f)
RH
(%)
Solar Rad.
(MJ/m2)
Rainfall
(in)
Wind
(mph)
Battery
(volts)
1/18/2022 12:00 AM 55 14 0 0 8.53 12.62
1/18/2022 1:00 AM 55 15 0 0 10.26 12.59
1/18/2022 2:00 AM 55 17 0 0 11.26 12.56
1/18/2022 3:00 AM 54 18 0 0 8.37 12.54
1/18/2022 4:00 AM 52 19 0 0 9.15 12.51
1/18/2022 5:00 AM 51 20 0 0 7.48 12.48
1/18/2022 6:00 AM 52 25 0 0 9.38 12.45
1/18/2022 7:00 AM 52 33 0 0 11.34 12.43
1/18/2022 8:00 AM 50 40 0 0 10.08 12.4
1/18/2022 9:00 AM 48 47 0 0 11.44 12.38
1/18/2022 10:00 AM 48 54 0.24 0 13.13 12.42
1/18/2022 11:00 AM 52 46 0.93 0 14.3 12.62
1/18/2022 12:00 PM 58 34 1.48 0 11.77 13.16
1/18/2022 1:00 PM 66 22 1.89 0 12.46 13.56
1/18/2022 2:00 PM 73 19 2.1 0 16.38 13.58
1/18/2022 3:00 PM 75 17 2.1 0 16.29 13.53
1/18/2022 4:00 PM 76 17 1.88 0 15.62 13.49
1/18/2022 5:00 PM 76 16 1.43 0 16.34 13.48
1/18/2022 6:00 PM 76 17 0.91 0 16.93 13.45
1/18/2022 7:00 PM 74 18 0.3 0 14.77 13.2
1/18/2022 8:00 PM 71 19 0.01 0 9.73 12.75
1/18/2022 9:00 PM 67 22 0 0 6.23 12.71
1/18/2022 10:00 PM 65 25 0 0 7.24 12.68
1/18/2022 11:00 PM 63 27 0 0 7.05 12.65
Data Summary 61 25 13.27 0.00 11.48 12.84